Time;durP1;ratioP1;P1;durP2;ratioP2;P2;SDS_P1;SDS_P2;PMS_P1;PMS_P2;Temp;Humidity;BMP_temperature;BMP_pressure;BME280_temperature;BME280_humidity;BME280_pressure;Samples;Min_cycle;Max_cycle;Signal;HPM_P1;HPM_P2
2022/11/19 00:02:17;;;;;;;14.05;8.73;;;11.10;99.90;;;;;;4976431;28;20177;-81
2022/11/19 00:04:43;;;;;;;18.48;8.93;;;11.20;99.90;;;;;;4974911;28;20620;-81
2022/11/19 00:07:08;;;;;;;13.15;9.00;;;11.20;99.90;;;;;;4975203;28;20256;-82
2022/11/19 00:09:34;;;;;;;17.30;9.43;;;11.10;99.90;;;;;;4976616;28;20677;-83
2022/11/19 00:14:43;;;;;;;9.93;8.88;;;11.00;99.90;;;;;;4976778;28;20177;-84
2022/11/19 00:17:09;;;;;;;9.25;8.45;;;10.90;99.90;;;;;;4976948;28;20166;-82
2022/11/19 00:19:34;;;;;;;15.02;9.77;;;10.70;99.90;;;;;;4976416;28;20189;-84
2022/11/19 00:22:00;;;;;;;12.43;9.88;;;10.70;99.90;;;;;;4976522;28;20170;-83
2022/11/19 00:24:29;;;;;;;10.05;8.98;;;10.60;99.90;;;;;;4976882;28;20170;-81
2022/11/19 00:26:55;;;;;;;10.68;9.57;;;10.50;99.90;;;;;;4976980;28;20197;-83
2022/11/19 00:29:20;;;;;;;10.38;8.93;;;10.80;99.90;;;;;;4980559;28;20190;-82
2022/11/19 00:31:46;;;;;;;14.18;10.07;;;10.90;99.90;;;;;;4989793;28;20159;-83
2022/11/19 00:34:12;;;;;;;11.85;9.35;;;10.90;99.90;;;;;;4990147;28;20241;-81
2022/11/19 00:36:38;;;;;;;11.48;8.65;;;10.80;99.90;;;;;;4992112;28;20166;-80
2022/11/19 00:39:03;;;;;;;12.90;9.85;;;10.90;99.90;;;;;;4986004;28;20713;-83
2022/11/19 00:41:29;;;;;;;14.27;9.23;;;10.90;99.90;;;;;;4984284;28;20196;-81
2022/11/19 00:43:55;;;;;;;15.30;10.25;;;10.80;99.90;;;;;;4991587;28;20174;-82
2022/11/19 00:46:24;;;;;;;20.77;10.25;;;10.90;99.90;;;;;;4993951;28;20178;-80
2022/11/19 00:48:51;;;;;;;11.63;9.57;;;11.00;99.90;;;;;;4993163;28;20217;-81
2022/11/19 00:51:18;;;;;;;15.13;9.30;;;11.00;99.90;;;;;;4992352;28;20178;-81
2022/11/19 00:53:45;;;;;;;13.48;9.27;;;10.90;99.90;;;;;;4992595;28;20209;-83
2022/11/19 00:56:13;;;;;;;13.75;8.98;;;10.80;99.90;;;;;;4980396;28;20626;-84
2022/11/19 00:58:39;;;;;;;9.95;8.95;;;10.70;99.90;;;;;;4983329;28;20336;-83
2022/11/19 01:01:05;;;;;;;14.38;9.40;;;10.70;99.90;;;;;;4983549;28;20158;-84
2022/11/19 01:03:31;;;;;;;11.65;9.80;;;10.70;99.90;;;;;;4983621;28;20227;-83
2022/11/19 01:05:57;;;;;;;10.25;9.07;;;10.70;99.90;;;;;;4982435;28;20233;-84
2022/11/19 01:08:23;;;;;;;12.00;10.50;;;10.70;99.90;;;;;;4982223;28;20287;-84
2022/11/19 01:10:49;;;;;;;13.65;10.38;;;10.70;99.90;;;;;;4983027;28;20188;-84
2022/11/19 01:15:59;;;;;;;10.20;9.15;;;10.30;99.90;;;;;;4985264;28;20185;-83
2022/11/19 01:18:26;;;;;;;14.90;9.98;;;10.20;99.90;;;;;;4979702;28;20201;-82
2022/11/19 01:20:52;;;;;;;12.20;8.93;;;10.20;99.90;;;;;;4973751;28;20221;-80
2022/11/19 01:23:17;;;;;;;13.55;9.48;;;10.30;99.90;;;;;;4974882;28;20193;-82
2022/11/19 01:25:43;;;;;;;11.70;9.52;;;10.30;99.90;;;;;;4975060;28;20205;-80
2022/11/19 01:28:09;;;;;;;16.38;9.93;;;10.30;99.90;;;;;;4973478;28;20304;-79
2022/11/19 01:30:39;;;;;;;10.80;9.38;;;10.20;99.90;;;;;;4974936;28;20631;-79
2022/11/19 01:33:05;;;;;;;11.50;9.73;;;10.20;99.90;;;;;;4974796;28;20165;-79
2022/11/19 01:35:30;;;;;;;14.15;10.82;;;10.30;99.90;;;;;;4975496;28;20166;-82
2022/11/19 01:37:56;;;;;;;13.85;10.45;;;10.50;99.90;;;;;;4978906;28;20197;-83
2022/11/19 01:40:23;;;;;;;14.52;11.35;;;10.50;99.90;;;;;;4978694;28;20679;-78
2022/11/19 01:42:48;;;;;;;12.50;11.23;;;10.60;99.90;;;;;;4976007;28;20182;-83
2022/11/19 01:45:26;;;;;;;19.13;12.48;;;10.70;99.90;;;;;;4973741;28;20189;-81
2022/11/19 01:47:53;;;;;;;13.27;10.07;;;10.70;99.90;;;;;;4976172;28;20232;-83
2022/11/19 01:50:21;;;;;;;18.58;11.30;;;10.70;99.90;;;;;;4975731;28;20336;-83
2022/11/19 01:52:46;;;;;;;14.23;10.18;;;10.50;99.90;;;;;;4974591;28;20595;-83
2022/11/19 01:55:12;;;;;;;15.48;11.73;;;10.50;99.90;;;;;;4981679;28;20170;-81
2022/11/19 01:57:39;;;;;;;14.90;11.40;;;10.60;99.90;;;;;;4983610;28;20575;-82
2022/11/19 02:00:06;;;;;;;13.43;11.13;;;10.60;99.90;;;;;;4981534;28;20217;-84
2022/11/19 02:02:33;;;;;;;11.75;10.20;;;10.50;99.90;;;;;;4979839;28;20640;-83
2022/11/19 02:04:59;;;;;;;14.05;11.90;;;10.60;99.90;;;;;;4973060;28;20209;-83
2022/11/19 02:07:28;;;;;;;12.13;10.75;;;10.30;99.90;;;;;;4979137;28;20208;-82
2022/11/19 02:10:00;;;;;;;17.75;10.13;;;10.40;99.90;;;;;;4974433;28;20186;-83
2022/11/19 02:12:50;;;;;;;16.85;11.48;;;10.50;99.90;;;;;;4974097;28;20197;-80
2022/11/19 02:15:36;;;;;;;15.15;10.30;;;10.40;99.90;;;;;;4974544;28;20166;-83
2022/11/19 02:18:29;;;;;;;14.95;11.23;;;10.20;99.90;;;;;;4973178;28;20213;-83
2022/11/19 02:21:10;;;;;;;16.88;11.23;;;10.40;99.90;;;;;;4967669;28;20196;-82
2022/11/19 02:24:09;;;;;;;19.88;10.82;;;10.20;99.90;;;;;;4974343;28;20174;-83
2022/11/19 02:26:34;;;;;;;11.07;9.88;;;10.20;99.90;;;;;;4972841;28;20538;-83
2022/11/19 02:29:15;;;;;;;26.35;11.40;;;10.40;99.90;;;;;;4974115;28;20284;-83
2022/11/19 02:32:18;;;;;;;16.85;11.07;;;10.40;99.90;;;;;;4977572;28;20166;-81
2022/11/19 02:34:56;;;;;;;18.70;11.43;;;10.40;99.90;;;;;;4979265;28;20198;-79
2022/11/19 02:37:54;;;;;;;16.70;10.57;;;10.40;99.90;;;;;;4981529;28;20170;-83
2022/11/19 02:40:27;;;;;;;17.13;10.38;;;10.40;99.90;;;;;;4959904;29;20205;-82
2022/11/19 02:43:17;;;;;;;21.50;10.90;;;10.40;99.90;;;;;;4979134;28;20181;-80
2022/11/19 02:45:59;;;;;;;11.02;9.98;;;10.30;99.90;;;;;;4977744;28;20166;-83
2022/11/19 02:48:31;;;;;;;13.68;10.07;;;10.20;99.90;;;;;;4977905;28;20201;-83
2022/11/19 02:51:00;;;;;;;10.30;9.00;;;10.30;99.90;;;;;;4972655;28;20184;-83
2022/11/19 02:53:26;;;;;;;10.57;9.45;;;10.20;99.90;;;;;;4980924;28;20278;-81
2022/11/19 02:56:11;;;;;;;10.02;9.02;;;10.20;99.90;;;;;;4977947;28;20174;-83
2022/11/19 03:04:32;;;;;;;10.57;9.45;;;10.30;99.90;;;;;;4936501;29;20185;-83
2022/11/19 03:07:15;;;;;;;11.13;9.40;;;10.20;99.90;;;;;;4961115;28;20186;-80
2022/11/19 03:09:51;;;;;;;10.48;9.27;;;10.20;99.90;;;;;;4977399;28;20194;-82
2022/11/19 03:12:28;;;;;;;14.82;9.63;;;10.30;99.90;;;;;;4980572;28;20256;-80
2022/11/19 03:18:32;;;;;;;16.85;9.60;;;10.40;99.90;;;;;;4979118;28;20173;-83
2022/11/19 03:21:21;;;;;;;11.10;8.27;;;10.50;99.90;;;;;;4979372;28;20174;-82
2022/11/19 03:23:53;;;;;;;11.98;9.68;;;10.60;99.90;;;;;;4984874;28;20162;-83
2022/11/19 03:26:47;;;;;;;16.02;10.02;;;10.70;99.90;;;;;;4969286;28;20211;-83
2022/11/19 03:29:14;;;;;;;16.90;9.05;;;10.60;99.90;;;;;;4983976;28;20213;-84
2022/11/19 03:31:46;;;;;;;13.30;9.40;;;10.70;99.90;;;;;;4988689;28;20671;-80
2022/11/19 03:34:17;;;;;;;14.30;9.65;;;10.70;99.90;;;;;;4984909;28;20884;-80
2022/11/19 03:36:48;;;;;;;11.02;9.52;;;10.60;99.90;;;;;;4971412;28;20197;-80
2022/11/19 03:39:16;;;;;;;11.45;9.40;;;10.60;99.90;;;;;;4988060;28;20220;-82
2022/11/19 03:41:46;;;;;;;15.57;9.45;;;10.50;99.90;;;;;;4985554;28;20269;-81
2022/11/19 03:44:20;;;;;;;9.20;8.30;;;10.50;99.90;;;;;;4987673;28;20181;-81
2022/11/19 03:46:51;;;;;;;9.88;8.98;;;10.70;99.90;;;;;;4985143;28;20173;-79
2022/11/19 03:49:21;;;;;;;15.65;8.98;;;10.70;99.90;;;;;;4985146;28;20217;-80
2022/11/19 03:51:52;;;;;;;10.63;9.38;;;10.70;99.90;;;;;;4984817;28;20186;-83
2022/11/19 03:54:18;;;;;;;14.95;10.48;;;10.70;99.90;;;;;;4988032;28;20257;-82
2022/11/19 03:56:48;;;;;;;12.00;8.75;;;10.70;99.90;;;;;;4984571;28;20178;-82
2022/11/19 03:59:15;;;;;;;11.38;8.77;;;10.90;99.90;;;;;;4985653;28;20205;-82
2022/11/19 04:01:47;;;;;;;13.23;9.25;;;11.00;99.90;;;;;;4985948;28;20205;-79
2022/11/19 04:06:57;;;;;;;10.30;9.13;;;10.80;99.90;;;;;;4981764;28;20193;-83
2022/11/19 04:09:23;;;;;;;17.25;9.63;;;10.70;99.90;;;;;;4979493;28;20209;-84
2022/11/19 04:11:48;;;;;;;12.68;8.13;;;10.80;99.90;;;;;;4979386;28;20198;-80
2022/11/19 04:14:14;;;;;;;22.75;8.82;;;10.80;99.90;;;;;;4980337;28;20257;-83
2022/11/19 04:16:40;;;;;;;10.45;9.27;;;10.80;99.90;;;;;;4979024;28;20166;-83
2022/11/19 04:19:05;;;;;;;12.32;8.45;;;10.90;99.90;;;;;;4976760;28;20740;-82
2022/11/19 04:21:31;;;;;;;12.30;9.90;;;10.90;99.90;;;;;;4977997;28;20197;-80
2022/11/19 04:23:56;;;;;;;14.18;9.38;;;11.00;99.90;;;;;;4979160;28;20170;-84
2022/11/19 04:26:22;;;;;;;9.95;8.77;;;10.80;99.90;;;;;;4976484;28;20260;-82
2022/11/19 04:28:47;;;;;;;10.25;9.18;;;10.50;99.90;;;;;;4978379;28;20210;-80
2022/11/19 04:31:13;;;;;;;9.27;8.45;;;10.40;99.90;;;;;;4979022;28;20174;-83
2022/11/19 04:33:39;;;;;;;10.57;9.30;;;10.50;99.90;;;;;;4985249;28;20228;-82
2022/11/19 04:36:05;;;;;;;12.23;9.75;;;10.60;99.90;;;;;;4988722;28;20534;-80
2022/11/19 04:38:30;;;;;;;15.93;10.32;;;10.80;99.90;;;;;;4990719;28;20212;-83
2022/11/19 04:40:56;;;;;;;14.85;9.75;;;10.80;99.90;;;;;;4980697;28;20198;-80
2022/11/19 04:43:21;;;;;;;11.55;10.40;;;10.80;99.90;;;;;;4981658;28;20539;-79
2022/11/19 04:45:47;;;;;;;10.68;9.52;;;10.80;99.90;;;;;;4978205;28;20204;-81
2022/11/19 04:48:14;;;;;;;14.80;10.85;;;10.50;99.90;;;;;;4977446;28;20210;-82
2022/11/19 04:50:41;;;;;;;13.13;9.82;;;10.70;99.90;;;;;;4976709;28;20182;-81
2022/11/19 04:53:06;;;;;;;12.93;10.43;;;10.60;99.90;;;;;;4976034;28;20170;-83
2022/11/19 04:55:32;;;;;;;10.75;9.68;;;10.70;99.90;;;;;;4974436;28;20173;-80
2022/11/19 04:57:57;;;;;;;14.80;10.18;;;10.70;99.90;;;;;;4975797;28;20178;-83
2022/11/19 05:00:23;;;;;;;16.77;9.90;;;10.70;99.90;;;;;;4975683;28;20221;-80
2022/11/19 05:02:48;;;;;;;12.60;10.30;;;10.60;99.90;;;;;;4975613;28;20181;-80
2022/11/19 05:05:14;;;;;;;9.85;8.82;;;10.60;99.90;;;;;;4975592;28;20213;-83
2022/11/19 05:07:39;;;;;;;13.15;10.20;;;10.60;99.90;;;;;;4975587;28;20197;-82
2022/11/19 05:10:05;;;;;;;16.13;9.70;;;10.60;99.90;;;;;;4974239;28;20206;-83
2022/11/19 05:12:31;;;;;;;10.80;9.30;;;10.60;99.90;;;;;;4974059;28;20181;-83
2022/11/19 05:14:57;;;;;;;15.52;9.65;;;10.40;99.90;;;;;;4975769;28;20243;-81
2022/11/19 05:17:22;;;;;;;10.95;9.95;;;10.30;99.90;;;;;;4974918;28;20233;-83
2022/11/19 05:19:48;;;;;;;14.15;10.70;;;10.30;99.90;;;;;;4975021;28;20194;-82
2022/11/19 05:22:13;;;;;;;14.75;9.80;;;10.60;99.90;;;;;;4974928;28;20213;-83
2022/11/19 05:24:39;;;;;;;17.13;10.32;;;10.60;99.90;;;;;;4975136;28;20177;-80
2022/11/19 05:27:04;;;;;;;12.85;10.77;;;10.50;99.90;;;;;;4974834;28;20178;-82
2022/11/19 05:29:30;;;;;;;11.43;10.32;;;10.40;99.90;;;;;;4975116;28;20208;-81
2022/11/19 05:31:55;;;;;;;13.20;10.52;;;10.40;99.90;;;;;;4974857;28;20247;-82
2022/11/19 05:34:21;;;;;;;12.43;10.32;;;10.50;99.90;;;;;;4974588;28;20619;-80
2022/11/19 05:36:47;;;;;;;15.38;11.30;;;10.60;99.90;;;;;;4986492;28;20173;-83
2022/11/19 05:39:12;;;;;;;12.30;10.43;;;10.50;99.90;;;;;;4994182;28;20197;-82
2022/11/19 05:41:38;;;;;;;13.82;10.93;;;10.60;99.90;;;;;;4994002;28;20188;-82
2022/11/19 05:44:03;;;;;;;13.43;11.18;;;10.60;99.90;;;;;;4994119;28;20165;-83
2022/11/19 05:46:29;;;;;;;15.55;11.30;;;10.70;99.90;;;;;;4992200;28;20172;-81
2022/11/19 05:48:55;;;;;;;14.52;10.55;;;10.50;99.90;;;;;;4992437;28;20295;-83
2022/11/19 05:51:20;;;;;;;11.40;10.27;;;10.20;99.90;;;;;;4994476;28;20247;-82
2022/11/19 05:53:46;;;;;;;11.07;9.80;;;10.10;99.90;;;;;;4993837;28;20185;-81
2022/11/19 05:56:11;;;;;;;16.58;10.18;;;10.10;99.90;;;;;;4993893;28;20693;-82
2022/11/19 05:58:37;;;;;;;21.92;11.13;;;10.40;99.90;;;;;;4993626;28;20239;-83
2022/11/19 06:01:03;;;;;;;13.23;10.35;;;10.30;99.90;;;;;;4994232;28;20177;-81
2022/11/19 06:03:28;;;;;;;15.48;10.07;;;10.40;99.90;;;;;;4994001;28;20196;-79
2022/11/19 06:05:54;;;;;;;11.07;9.98;;;10.40;99.90;;;;;;4993670;28;20205;-81
2022/11/19 06:08:20;;;;;;;11.27;9.98;;;10.40;99.90;;;;;;4993902;28;20232;-81
2022/11/19 06:10:45;;;;;;;15.25;9.43;;;10.60;99.90;;;;;;4992485;28;20170;-80
2022/11/19 06:13:11;;;;;;;14.65;10.30;;;10.50;99.90;;;;;;4993786;28;20200;-79
2022/11/19 06:15:36;;;;;;;11.90;8.85;;;10.50;99.90;;;;;;4993541;28;20216;-82
2022/11/19 06:18:02;;;;;;;10.23;9.15;;;10.50;99.90;;;;;;4993743;28;20184;-81
2022/11/19 06:20:28;;;;;;;15.40;9.90;;;10.70;99.90;;;;;;4992189;28;20216;-83
2022/11/19 06:22:53;;;;;;;11.25;8.40;;;10.60;99.90;;;;;;4993353;28;20180;-80
2022/11/19 06:25:19;;;;;;;11.38;9.35;;;10.50;99.90;;;;;;4993286;28;20245;-81
2022/11/19 06:27:44;;;;;;;14.27;9.38;;;10.50;99.90;;;;;;4992143;28;20264;-81
2022/11/19 06:30:11;;;;;;;14.30;9.95;;;10.60;99.90;;;;;;4978337;28;20667;-82
2022/11/19 06:32:36;;;;;;;10.50;9.40;;;10.50;99.90;;;;;;4974001;28;20200;-80
2022/11/19 06:35:02;;;;;;;10.27;9.38;;;10.40;99.90;;;;;;4973789;28;20619;-81
2022/11/19 06:37:28;;;;;;;16.40;8.85;;;10.40;99.90;;;;;;4982082;28;20170;-79
2022/11/19 06:39:54;;;;;;;14.45;8.73;;;10.60;99.90;;;;;;4983862;28;20647;-83
2022/11/19 06:42:53;;;;;;;13.55;9.75;;;10.70;99.90;;;;;;4973856;28;20201;-80
2022/11/19 06:45:13;;;;;;;11.60;9.07;;;10.70;99.90;;;;;;4973106;28;20185;-83
2022/11/19 06:47:40;;;;;;;13.02;10.55;;;10.80;99.90;;;;;;4974080;28;20658;-80
2022/11/19 06:50:08;;;;;;;13.15;10.88;;;10.70;99.90;;;;;;4973737;28;20260;-81
2022/11/19 06:52:34;;;;;;;11.27;9.15;;;10.80;99.90;;;;;;4973741;28;20250;-84
2022/11/19 06:54:59;;;;;;;11.88;9.48;;;10.80;99.90;;;;;;4973662;28;20208;-83
2022/11/19 06:57:25;;;;;;;10.57;9.35;;;10.60;99.90;;;;;;4975395;28;20180;-81
2022/11/19 06:59:51;;;;;;;12.68;9.27;;;10.40;99.90;;;;;;4977706;28;20563;-83
2022/11/19 07:02:17;;;;;;;10.52;9.00;;;10.30;99.90;;;;;;4978293;28;20573;-80
2022/11/19 07:04:42;;;;;;;10.90;9.80;;;10.30;99.90;;;;;;4979673;28;20177;-82
2022/11/19 07:07:09;;;;;;;11.50;9.23;;;10.40;99.90;;;;;;4993126;28;20188;-79
2022/11/19 07:09:34;;;;;;;14.27;9.68;;;10.60;99.90;;;;;;4988510;28;20273;-84
2022/11/19 07:12:00;;;;;;;12.38;9.73;;;10.70;99.90;;;;;;4984064;28;20205;-83
2022/11/19 07:14:26;;;;;;;12.25;11.00;;;11.00;99.90;;;;;;4983898;28;20166;-80
2022/11/19 07:16:51;;;;;;;11.18;10.07;;;10.90;99.90;;;;;;4986626;28;20170;-79
2022/11/19 07:19:18;;;;;;;11.18;9.98;;;10.70;99.90;;;;;;4987140;28;20221;-80
2022/11/19 07:21:43;;;;;;;13.10;9.05;;;10.80;99.90;;;;;;4988971;28;20186;-83
2022/11/19 07:24:10;;;;;;;15.82;9.65;;;10.60;99.90;;;;;;4984032;28;20172;-81
2022/11/19 07:26:36;;;;;;;13.10;10.23;;;10.70;99.90;;;;;;4984074;28;20158;-81
2022/11/19 07:29:05;;;;;;;13.55;10.55;;;10.80;99.90;;;;;;4985817;28;20225;-83
2022/11/19 07:31:32;;;;;;;12.95;9.55;;;11.00;99.90;;;;;;4974901;28;20182;-81
2022/11/19 07:33:58;;;;;;;15.73;9.88;;;11.00;99.90;;;;;;4986421;28;20166;-81
2022/11/19 07:36:26;;;;;;;13.18;9.95;;;11.00;99.90;;;;;;4983721;28;20190;-81
2022/11/19 07:38:53;;;;;;;13.43;10.20;;;10.80;99.90;;;;;;4966129;28;20272;-83
2022/11/19 07:44:04;;;;;;;11.27;7.20;;;10.20;99.90;;;;;;4985958;28;20208;-82
2022/11/19 07:46:31;;;;;;;5.43;4.93;;;9.70;99.90;;;;;;4983699;28;20162;-79
2022/11/19 07:49:01;;;;;;;4.90;4.25;;;9.40;99.90;;;;;;4983891;28;20269;-80
2022/11/19 07:51:26;;;;;;;5.25;4.75;;;9.10;99.90;;;;;;4985873;28;20182;-80
2022/11/19 07:53:53;;;;;;;4.95;4.55;;;9.00;99.90;;;;;;4984659;28;20193;-80
2022/11/19 07:56:19;;;;;;;5.00;4.40;;;8.90;99.90;;;;;;4976515;28;20166;-83
2022/11/19 07:58:45;;;;;;;5.50;5.00;;;8.70;99.90;;;;;;4976393;28;20272;-85
2022/11/19 08:01:20;;;;;;;5.18;4.60;;;8.50;99.90;;;;;;4975832;28;20253;-80
2022/11/19 08:03:46;;;;;;;5.43;4.82;;;8.50;99.90;;;;;;4974985;28;20172;-84
2022/11/19 08:06:14;;;;;;;6.78;5.00;;;8.30;99.90;;;;;;4976526;28;20179;-82
2022/11/19 08:08:41;;;;;;;5.22;4.72;;;8.40;99.90;;;;;;4975489;28;20218;-80
2022/11/19 08:11:09;;;;;;;4.78;4.38;;;8.20;99.90;;;;;;4975110;28;20180;-80
2022/11/19 08:13:35;;;;;;;5.78;5.25;;;8.30;99.90;;;;;;4974727;28;20170;-80
2022/11/19 08:16:05;;;;;;;6.13;5.25;;;8.20;99.90;;;;;;4974759;28;20178;-80
2022/11/19 08:18:31;;;;;;;5.68;5.13;;;8.20;99.90;;;;;;4976713;28;20190;-79
2022/11/19 08:21:06;;;;;;;7.10;5.93;;;8.30;99.90;;;;;;4975860;28;20634;-79
2022/11/19 08:23:32;;;;;;;5.82;5.25;;;8.30;99.90;;;;;;4976310;28;20169;-82
2022/11/19 08:25:59;;;;;;;6.68;6.07;;;8.20;99.90;;;;;;4976044;28;20245;-81
2022/11/19 08:28:25;;;;;;;6.35;5.75;;;7.80;99.90;;;;;;4974668;28;20221;-83
2022/11/19 08:30:51;;;;;;;7.00;6.20;;;7.80;99.90;;;;;;4975216;28;20765;-82
2022/11/19 08:33:16;;;;;;;10.07;6.93;;;7.80;99.90;;;;;;4975625;28;20253;-81
2022/11/19 08:35:42;;;;;;;7.13;6.43;;;7.70;99.90;;;;;;4973504;28;20197;-81
2022/11/19 08:38:08;;;;;;;8.25;7.40;;;7.70;99.90;;;;;;4981166;28;20650;-81
2022/11/19 08:40:34;;;;;;;7.38;6.68;;;7.80;99.90;;;;;;4977423;28;20178;-79
2022/11/19 08:42:59;;;;;;;7.75;7.13;;;7.70;99.90;;;;;;4975812;28;20181;-80
2022/11/19 08:45:26;;;;;;;8.18;7.10;;;7.60;99.90;;;;;;4975748;28;20181;-83
2022/11/19 08:47:52;;;;;;;6.43;5.72;;;7.50;99.90;;;;;;4974212;28;20686;-82
2022/11/19 08:50:17;;;;;;;6.65;5.95;;;7.40;99.90;;;;;;4974173;28;20292;-82
2022/11/19 08:52:43;;;;;;;7.40;6.70;;;7.50;99.90;;;;;;4977889;28;20328;-82
2022/11/19 08:55:09;;;;;;;8.85;6.13;;;7.40;99.90;;;;;;4991031;28;20633;-82
2022/11/19 08:57:34;;;;;;;7.65;6.25;;;7.30;99.90;;;;;;4992313;28;20173;-83
2022/11/19 09:00:00;;;;;;;7.20;6.55;;;7.30;99.90;;;;;;4992199;28;20602;-84
2022/11/19 09:02:27;;;;;;;6.63;5.97;;;7.30;99.90;;;;;;4989889;28;20174;-83
2022/11/19 09:04:53;;;;;;;6.47;5.88;;;7.30;99.90;;;;;;4993777;28;20201;-83
2022/11/19 09:07:18;;;;;;;8.00;5.97;;;7.10;99.90;;;;;;4995016;28;20173;-83
2022/11/19 09:09:44;;;;;;;7.68;6.07;;;7.20;99.90;;;;;;4993680;28;20592;-82
2022/11/19 09:12:09;;;;;;;5.43;4.93;;;7.10;99.90;;;;;;4995207;28;20170;-81
2022/11/19 09:14:35;;;;;;;6.07;5.53;;;6.80;99.90;;;;;;4994048;28;20177;-84
2022/11/19 09:17:01;;;;;;;5.07;4.57;;;6.90;99.90;;;;;;4985282;28;20210;-84
2022/11/19 09:19:26;;;;;;;5.40;4.38;;;6.90;99.90;;;;;;4975780;28;20200;-81
2022/11/19 09:21:52;;;;;;;5.18;4.60;;;6.90;99.90;;;;;;4973221;28;20186;-83
2022/11/19 09:24:17;;;;;;;5.63;5.05;;;6.90;99.90;;;;;;4975285;28;20209;-82
2022/11/19 09:26:43;;;;;;;5.32;4.82;;;6.90;99.90;;;;;;4974964;28;20170;-84
2022/11/19 09:29:09;;;;;;;5.47;4.97;;;7.00;99.90;;;;;;4975153;28;20674;-83
2022/11/19 09:31:34;;;;;;;4.22;3.90;;;7.10;99.90;;;;;;4973742;28;20182;-81
2022/11/19 09:34:00;;;;;;;5.22;4.72;;;7.30;99.90;;;;;;4973708;28;20181;-84
2022/11/19 09:36:26;;;;;;;5.65;4.22;;;7.20;99.90;;;;;;4976619;28;20533;-80
2022/11/19 09:38:57;;;;;;;5.57;5.07;;;7.20;99.90;;;;;;4981805;28;20193;-80
2022/11/19 09:41:44;;;;;;;5.47;4.88;;;7.00;99.90;;;;;;4992521;28;20174;-80
2022/11/19 09:44:54;;;;;;;10.55;4.90;;;7.00;99.90;;;;;;4981626;28;20662;-80
2022/11/19 09:47:34;;;;;;;8.88;4.93;;;7.00;99.90;;;;;;4967765;28;20232;-81
2022/11/19 09:50:15;;;;;;;5.57;5.07;;;7.00;99.90;;;;;;4974752;28;20624;-81
2022/11/19 09:52:49;;;;;;;6.50;5.90;;;7.00;99.90;;;;;;4973548;28;20182;-82
2022/11/19 09:55:39;;;;;;;6.63;5.93;;;7.10;99.90;;;;;;4989285;28;20260;-81
2022/11/19 09:58:16;;;;;;;7.47;6.63;;;7.00;99.90;;;;;;4994620;28;20165;-81
2022/11/19 10:00:44;;;;;;;9.63;8.02;;;6.90;99.90;;;;;;4994200;28;20181;-80
2022/11/19 10:03:15;;;;;;;8.55;7.72;;;6.80;99.90;;;;;;4993181;28;20273;-81
2022/11/19 10:05:53;;;;;;;10.65;9.55;;;6.80;99.90;;;;;;4994141;28;20660;-84
2022/11/19 10:08:25;;;;;;;12.10;9.77;;;6.80;99.90;;;;;;4993641;28;20259;-81
2022/11/19 10:11:05;;;;;;;13.40;10.23;;;6.80;99.90;;;;;;4993030;28;20184;-82
2022/11/19 10:14:01;;;;;;;16.25;11.73;;;6.80;99.90;;;;;;4994204;28;20248;-80
2022/11/19 10:16:52;;;;;;;13.13;11.05;;;6.80;99.90;;;;;;4994080;28;20204;-82
2022/11/19 10:19:46;;;;;;;20.38;13.10;;;6.80;99.90;;;;;;4992742;28;20232;-79
2022/11/19 10:22:29;;;;;;;18.17;12.05;;;7.00;99.90;;;;;;4991499;28;20188;-80
2022/11/19 10:25:17;;;;;;;16.42;11.65;;;6.70;99.90;;;;;;4997784;28;20181;-83
2022/11/19 10:27:54;;;;;;;20.63;14.20;;;6.70;99.90;;;;;;4993114;28;20248;-80
2022/11/19 10:30:25;;;;;;;16.98;12.32;;;6.70;99.90;;;;;;4994023;28;20185;-84
2022/11/19 10:33:02;;;;;;;16.95;13.20;;;6.80;99.90;;;;;;4992891;28;20200;-83
2022/11/19 10:35:43;;;;;;;23.65;13.55;;;6.80;99.90;;;;;;4994560;28;20296;-81
2022/11/19 10:38:39;;;;;;;18.25;12.82;;;6.90;99.90;;;;;;4994256;28;20169;-82
2022/11/19 10:41:13;;;;;;;17.48;12.38;;;6.90;99.90;;;;;;4992276;28;20597;-80
2022/11/19 10:43:47;;;;;;;15.10;11.75;;;6.70;99.90;;;;;;4993201;28;20531;-82
2022/11/19 10:46:16;;;;;;;15.07;11.63;;;6.70;99.90;;;;;;4993637;28;20173;-82
2022/11/19 10:48:48;;;;;;;15.32;12.05;;;6.60;99.90;;;;;;4993154;28;20216;-82
2022/11/19 10:51:34;;;;;;;17.38;11.85;;;6.60;99.90;;;;;;4995112;28;20199;-80
2022/11/19 10:54:04;;;;;;;14.38;11.60;;;6.50;99.90;;;;;;4991443;28;20554;-83
2022/11/19 10:56:37;;;;;;;16.27;11.70;;;6.70;99.90;;;;;;4992994;28;20168;-81
2022/11/19 10:59:11;;;;;;;19.77;12.25;;;6.80;99.90;;;;;;4993687;28;20208;-80
2022/11/19 11:01:41;;;;;;;16.17;11.27;;;6.90;99.90;;;;;;4994025;28;20235;-79
2022/11/19 11:04:14;;;;;;;12.52;10.52;;;6.90;99.90;;;;;;4991846;28;20169;-79
2022/11/19 11:06:57;;;;;;;15.80;10.90;;;7.00;99.90;;;;;;4997245;28;20659;-80
2022/11/19 11:09:38;;;;;;;15.57;10.02;;;6.70;99.90;;;;;;4994861;28;20205;-81
2022/11/19 11:15:12;;;;;;;18.13;10.63;;;6.90;99.90;;;;;;4979138;28;20196;-80
2022/11/19 11:17:41;;;;;;;18.90;10.88;;;6.70;99.90;;;;;;4971974;28;20189;-80
2022/11/19 11:20:15;;;;;;;16.02;11.00;;;6.60;99.90;;;;;;4991174;28;20189;-84
2022/11/19 11:22:44;;;;;;;15.95;10.63;;;6.70;99.90;;;;;;4991718;28;20180;-81
2022/11/19 11:25:27;;;;;;;15.38;11.45;;;6.60;99.90;;;;;;4992867;28;20165;-80
2022/11/19 11:28:12;;;;;;;15.27;10.63;;;6.40;99.90;;;;;;4990795;28;20228;-81
2022/11/19 11:30:53;;;;;;;13.40;10.85;;;6.40;99.90;;;;;;4993909;28;20256;-82
2022/11/19 11:33:37;;;;;;;16.13;10.75;;;6.50;99.90;;;;;;4977898;28;20173;-81
2022/11/19 11:36:12;;;;;;;13.15;10.13;;;6.40;99.90;;;;;;4972222;28;20205;-78
2022/11/19 11:38:42;;;;;;;12.50;9.85;;;6.40;99.90;;;;;;4975500;28;20190;-79
2022/11/19 11:41:11;;;;;;;13.50;10.57;;;6.20;99.90;;;;;;4974111;28;20258;-80
2022/11/19 11:43:39;;;;;;;14.30;10.35;;;6.20;99.90;;;;;;4974267;28;20692;-80
2022/11/19 11:46:09;;;;;;;18.08;11.23;;;6.10;99.90;;;;;;4980790;28;20177;-81
2022/11/19 11:48:47;;;;;;;14.32;10.20;;;6.10;99.90;;;;;;4977025;28;20765;-83
2022/11/19 11:51:34;;;;;;;14.32;10.63;;;6.10;99.90;;;;;;4977175;28;20941;-79
2022/11/19 11:54:20;;;;;;;15.18;10.88;;;6.30;99.90;;;;;;4995621;28;20632;-80
2022/11/19 11:56:46;;;;;;;15.35;10.40;;;6.30;99.90;;;;;;4995160;28;20652;-79
2022/11/19 11:59:16;;;;;;;19.00;10.88;;;6.30;99.90;;;;;;4995895;28;20189;-80
2022/11/19 12:01:51;;;;;;;14.57;11.25;;;6.30;99.90;;;;;;4990610;28;20178;-82
2022/11/19 12:04:17;;;;;;;18.23;11.68;;;6.30;99.90;;;;;;4976218;28;20173;-80
2022/11/19 12:07:12;;;;;;;16.30;12.30;;;6.50;99.90;;;;;;4976535;28;20178;-82
2022/11/19 12:09:54;;;;;;;15.25;11.57;;;6.40;99.90;;;;;;4974287;28;20682;-80
2022/11/19 12:12:19;;;;;;;18.30;12.48;;;6.30;99.90;;;;;;4987373;28;20704;-81
2022/11/19 12:15:07;;;;;;;15.40;10.55;;;6.30;99.90;;;;;;4992638;28;20244;-82
2022/11/19 12:17:45;;;;;;;19.00;11.82;;;6.20;99.90;;;;;;4985577;28;20189;-79
2022/11/19 12:20:34;;;;;;;18.42;11.07;;;6.20;99.90;;;;;;4977099;28;20276;-79
2022/11/19 12:23:28;;;;;;;16.55;11.90;;;6.10;99.90;;;;;;4976673;28;20170;-81
2022/11/19 12:26:19;;;;;;;12.45;10.27;;;6.30;99.90;;;;;;4976261;28;20166;-80
2022/11/19 12:28:54;;;;;;;14.98;10.75;;;6.20;99.90;;;;;;4976172;28;20197;-82
2022/11/19 12:31:59;;;;;;;15.57;11.77;;;6.20;99.90;;;;;;4976066;28;20169;-82
2022/11/19 12:34:50;;;;;;;18.92;13.05;;;6.20;99.90;;;;;;4976273;28;20178;-81
2022/11/19 12:37:44;;;;;;;17.00;11.65;;;6.20;99.90;;;;;;4976025;28;20176;-84
2022/11/19 12:40:17;;;;;;;14.93;11.88;;;6.20;99.90;;;;;;4974788;28;20240;-81
2022/11/19 12:42:57;;;;;;;22.98;12.75;;;6.30;99.90;;;;;;4975111;28;20177;-82
2022/11/19 12:45:40;;;;;;;19.23;13.52;;;6.10;99.90;;;;;;4976610;28;20173;-81
2022/11/19 12:48:21;;;;;;;17.48;12.00;;;6.20;99.90;;;;;;4976098;28;20205;-80
2022/11/19 12:51:07;;;;;;;19.33;12.25;;;6.00;99.90;;;;;;4976080;28;20282;-82
2022/11/19 12:53:41;;;;;;;21.70;12.32;;;6.00;99.90;;;;;;4975622;28;20264;-79
2022/11/19 12:56:35;;;;;;;19.60;13.95;;;6.00;99.90;;;;;;4974573;28;20173;-80
2022/11/19 12:59:27;;;;;;;21.55;14.02;;;5.90;99.90;;;;;;4974606;28;20290;-82
2022/11/19 13:01:56;;;;;;;21.25;14.05;;;6.00;99.90;;;;;;4975905;28;20174;-81
2022/11/19 13:04:24;;;;;;;25.00;13.80;;;6.00;99.90;;;;;;4975362;28;20176;-79
2022/11/19 13:06:57;;;;;;;24.17;14.55;;;6.00;99.90;;;;;;4975440;28;20662;-79
2022/11/19 13:09:45;;;;;;;31.38;16.58;;;5.80;99.90;;;;;;4975653;28;20406;-78
2022/11/19 13:12:20;;;;;;;26.33;16.67;;;5.80;99.90;;;;;;4974666;28;20630;-78
2022/11/19 13:14:56;;;;;;;30.90;15.95;;;5.70;99.90;;;;;;4973781;28;20507;-80
2022/11/19 13:17:26;;;;;;;30.10;16.77;;;5.80;99.90;;;;;;4975087;28;20224;-79
2022/11/19 13:19:59;;;;;;;22.40;15.30;;;5.90;99.90;;;;;;4975053;28;20212;-79
2022/11/19 13:22:32;;;;;;;22.33;13.50;;;5.80;99.90;;;;;;4974884;28;20534;-80